createdAt,value
2022-08-08T00:00:51.092Z,14.3
2022-08-08T00:02:03.659Z,14.4
2022-08-08T00:03:36.385Z,14.3
2022-08-08T00:05:43.431Z,14.4
2022-08-08T00:07:43.943Z,14.3
2022-08-08T00:09:47.829Z,14.3
2022-08-08T00:12:05.772Z,14.2
2022-08-08T00:14:14.940Z,14.2
2022-08-08T00:16:02.788Z,14.2
2022-08-08T00:18:06.709Z,14.1
2022-08-08T00:20:14.597Z,14.1
2022-08-08T00:21:16.363Z,14.1
2022-08-08T00:23:18.098Z,14.1
2022-08-08T00:25:21.950Z,14.1
2022-08-08T00:27:25.850Z,14.1
2022-08-08T00:29:45.837Z,14.1
2022-08-08T00:32:28.204Z,14
2022-08-08T00:35:48.760Z,13.9
2022-08-08T00:38:01.750Z,13.9
2022-08-08T00:41:09.056Z,13.9
2022-08-08T00:42:08.918Z,13.9
2022-08-08T00:44:03.605Z,13.9
2022-08-08T00:46:16.612Z,13.8
2022-08-08T00:48:29.435Z,13.8
2022-08-08T00:50:15.200Z,13.8
2022-08-08T00:52:20.149Z,13.8
2022-08-08T00:54:23.011Z,13.7
2022-08-08T00:56:29.638Z,13.7
2022-08-08T00:58:34.565Z,13.7
2022-08-08T01:03:57.873Z,13.5
2022-08-08T01:04:47.468Z,13.5
2022-08-08T01:08:53.506Z,13.6
2022-08-08T01:13:04.578Z,13.6
2022-08-08T01:15:08.475Z,13.6
2022-08-08T01:17:12.872Z,13.6
2022-08-08T01:18:16.301Z,13.6
2022-08-08T01:22:32.353Z,13.5
2022-08-08T01:24:27.680Z,13.5
2022-08-08T01:26:36.470Z,13.4
2022-08-08T01:30:44.204Z,13.4
2022-08-08T01:32:51.924Z,13.3
2022-08-08T01:34:51.982Z,13.3
2022-08-08T01:36:55.866Z,13.3
2022-08-08T01:38:59.788Z,13.3
2022-08-08T01:41:11.495Z,13.2
2022-08-08T01:43:10.819Z,13.2
2022-08-08T01:45:14.696Z,13.2
2022-08-08T01:48:14.924Z,13.1
2022-08-08T01:49:23.447Z,13.2
2022-08-08T01:51:31.591Z,13.2
2022-08-08T01:55:45.474Z,13.1
2022-08-08T01:56:29.079Z,13.1
2022-08-08T01:58:11.642Z,13.1
2022-08-08T02:00:00.949Z,13.1
2022-08-08T02:03:56.864Z,13.1
2022-08-08T02:08:01.009Z,13.1
2022-08-08T02:10:11.313Z,13
2022-08-08T02:12:12.455Z,13
2022-08-08T02:15:19.408Z,13
2022-08-08T02:17:23.280Z,13
2022-08-08T02:19:57.992Z,13
2022-08-08T02:21:31.090Z,13
2022-08-08T02:23:38.251Z,13
2022-08-08T02:25:47.356Z,12.9
2022-08-08T02:27:46.037Z,12.9
2022-08-08T02:29:51.988Z,12.9
2022-08-08T02:31:59.018Z,12.9
2022-08-08T02:34:08.239Z,12.8
2022-08-08T02:36:03.794Z,12.8
2022-08-08T02:38:09.092Z,12.8
2022-08-08T02:40:12.722Z,12.7
2022-08-08T02:42:16.589Z,12.7
2022-08-08T02:50:32.165Z,12.8
2022-08-08T02:52:39.351Z,12.8
2022-08-08T02:54:43.238Z,12.7
2022-08-08T02:56:47.302Z,12.8
2022-08-08T02:58:51.043Z,12.8
2022-08-08T03:05:09.439Z,12.8
2022-08-08T03:07:09.851Z,12.8
2022-08-08T03:09:13.759Z,12.8
2022-08-08T03:15:56.987Z,12.7
2022-08-08T03:15:58.222Z,12.7
2022-08-08T03:19:54.966Z,12.8
2022-08-08T03:21:59.997Z,12.8
2022-08-08T03:30:18.969Z,12.8
2022-08-08T03:32:18.382Z,12.8
2022-08-08T03:34:25.481Z,12.8
2022-08-08T03:36:31.195Z,12.8
2022-08-08T03:38:55.752Z,12.8
2022-08-08T03:40:37.232Z,12.8
2022-08-08T03:42:45.757Z,12.7
2022-08-08T03:46:48.843Z,12.7
2022-08-08T03:53:03.814Z,12.6
2022-08-08T03:55:19.847Z,12.5
2022-08-08T03:58:30.034Z,12.5
2022-08-08T03:59:22.776Z,12.5
2022-08-08T04:01:23.345Z,12.5
2022-08-08T04:03:57.296Z,12.5
2022-08-08T04:05:30.468Z,12.5
2022-08-08T04:07:34.362Z,12.6
2022-08-08T04:10:41.845Z,12.5
2022-08-08T04:16:56.815Z,12.5
2022-08-08T04:21:06.343Z,12.6
2022-08-08T04:25:13.054Z,12.6
2022-08-08T04:27:19.742Z,12.6
2022-08-08T04:31:56.995Z,12.6
2022-08-08T04:33:31.274Z,12.5
2022-08-08T04:41:46.855Z,12.5
2022-08-08T04:43:54.260Z,12.5
2022-08-08T04:45:57.939Z,12.6
2022-08-08T04:50:06.177Z,12.6
2022-08-08T04:52:09.622Z,12.6
2022-08-08T04:56:17.433Z,12.7
2022-08-08T05:04:36.307Z,13
2022-08-08T05:05:44.572Z,13
2022-08-08T05:07:43.818Z,13.1
2022-08-08T05:09:47.699Z,13.1
2022-08-08T05:11:57.095Z,13.2
2022-08-08T05:14:01.332Z,13.3
2022-08-08T05:16:51.148Z,13.3
2022-08-08T05:18:06.599Z,13.4
2022-08-08T05:22:17.633Z,13.5
2022-08-08T05:32:37.441Z,13.9
2022-08-08T05:34:41.028Z,13.9
2022-08-08T05:36:44.940Z,14
2022-08-08T05:38:48.804Z,14.5
2022-08-08T05:45:10.371Z,14.6
2022-08-08T05:47:07.682Z,14.8
2022-08-08T05:51:16.181Z,16.2
2022-08-08T05:53:54.389Z,17
2022-08-08T05:55:25.450Z,18.4
2022-08-08T05:58:05.255Z,19.8
2022-08-08T06:00:01.449Z,19.9
2022-08-08T06:01:55.786Z,19.3
2022-08-08T06:02:43.413Z,17.6
2022-08-08T06:04:47.713Z,17.1
2022-08-08T06:06:50.390Z,16.8
2022-08-08T06:09:00.275Z,16.8
2022-08-08T06:11:00.606Z,16.7
2022-08-08T06:13:04.506Z,16.8
2022-08-08T06:15:08.399Z,17.3
2022-08-08T06:17:12.259Z,17.6
2022-08-08T06:19:16.577Z,17.7
2022-08-08T06:21:32.770Z,17.4
2022-08-08T06:25:58.866Z,17.3
2022-08-08T06:27:34.886Z,17.3
2022-08-08T06:30:00.227Z,17.4
2022-08-08T06:32:08.979Z,17.5
2022-08-08T06:34:26.754Z,18.2
2022-08-08T06:40:01.494Z,23.2
2022-08-08T06:42:05.280Z,23.3
2022-08-08T06:44:12.180Z,23.4
2022-08-08T06:48:16.892Z,21.5
2022-08-08T06:54:31.746Z,22.2
2022-08-08T06:56:35.619Z,22.9
2022-08-08T06:58:40.062Z,24.1
2022-08-08T07:01:01.971Z,24.3
2022-08-08T07:03:05.898Z,24.1
2022-08-08T07:07:16.823Z,23.7
2022-08-08T07:09:21.403Z,23.7
2022-08-08T07:11:24.534Z,24.4
2022-08-08T07:13:28.354Z,25.3
2022-08-08T07:16:05.078Z,25.3
2022-08-08T07:17:40.330Z,24.3
2022-08-08T07:19:39.858Z,24
2022-08-08T07:21:48.253Z,24.8
2022-08-08T07:23:57.452Z,25.1
2022-08-08T07:25:56.214Z,26
2022-08-08T07:28:02.482Z,26.1
2022-08-08T07:32:07.636Z,26
2022-08-08T07:34:20.346Z,25.5
2022-08-08T07:36:18.548Z,25.1
2022-08-08T07:40:29.538Z,25.4
2022-08-08T07:42:33.017Z,25.2
2022-08-08T07:44:40.292Z,25.6
2022-08-08T07:46:37.538Z,26.1
2022-08-08T07:48:42.026Z,25.8
2022-08-08T07:50:48.443Z,24.1
2022-08-08T07:52:52.236Z,24.6
2022-08-08T07:54:56.000Z,25.8
2022-08-08T07:55:59.581Z,26.6
2022-08-08T07:58:03.343Z,26.7
2022-08-08T08:00:15.902Z,26.1
2022-08-08T08:02:34.376Z,26
2022-08-08T08:08:25.513Z,26.5
2022-08-08T08:10:30.481Z,26.4
2022-08-08T08:14:36.831Z,26.5
2022-08-08T08:18:51.842Z,26.9
2022-08-08T08:20:51.505Z,26.7
2022-08-08T08:22:55.261Z,26.1
2022-08-08T08:24:59.018Z,26
2022-08-08T08:27:03.595Z,26.2
2022-08-08T08:29:06.541Z,26.4
2022-08-08T08:31:10.285Z,26.1
2022-08-08T08:33:17.365Z,24.4
2022-08-08T08:35:21.758Z,24.4
2022-08-08T08:37:30.027Z,25.9
2022-08-08T08:39:59.339Z,26.4
2022-08-08T08:45:39.934Z,27.3
2022-08-08T08:47:46.998Z,26.9
2022-08-08T08:49:50.760Z,27
2022-08-08T08:52:59.572Z,26.8
2022-08-08T08:57:15.325Z,26
2022-08-08T08:59:15.154Z,25.4
2022-08-08T09:01:16.469Z,23.5
2022-08-08T09:03:20.159Z,23.4
2022-08-08T09:05:29.111Z,22.9
2022-08-08T09:07:39.052Z,22.7
2022-08-08T09:09:39.823Z,22
2022-08-08T09:11:35.175Z,21.6
2022-08-08T09:13:38.967Z,22
2022-08-08T09:15:46.035Z,22.5
2022-08-08T09:17:55.288Z,22.3
2022-08-08T09:26:04.833Z,21.4
2022-08-08T09:28:08.597Z,21.2
2022-08-08T09:30:17.870Z,21.2
2022-08-08T09:32:19.617Z,21.3
2022-08-08T09:34:32.329Z,22.2
2022-08-08T09:36:27.073Z,22.4
2022-08-08T09:38:31.903Z,22.6
2022-08-08T09:40:43.875Z,23
2022-08-08T09:42:43.997Z,23.1
2022-08-08T09:44:45.292Z,22.6
2022-08-08T09:46:57.569Z,22.3
2022-08-08T09:49:56.364Z,23.1
2022-08-08T10:06:29.902Z,23.6
2022-08-08T10:10:37.249Z,23.5
2022-08-08T10:14:48.065Z,23.3
2022-08-08T10:16:51.815Z,22.9
2022-08-08T10:18:55.841Z,22.4
2022-08-08T10:23:03.060Z,21.7
2022-08-08T10:25:00.062Z,21.6
2022-08-08T10:44:33.772Z,23.5
2022-08-08T19:30:24.346Z,19.5
2022-08-08T19:32:23.278Z,19.4
2022-08-08T19:36:51.607Z,19.2
2022-08-08T19:38:55.434Z,19.2
2022-08-08T19:40:59.279Z,19.1
2022-08-08T19:43:11.810Z,19.1
2022-08-08T19:45:10.309Z,19
2022-08-08T19:47:14.076Z,18.9
2022-08-08T19:49:17.905Z,18.9
2022-08-08T19:53:51.974Z,18.8
2022-08-08T19:55:34.133Z,18.7
2022-08-08T19:57:36.527Z,18.7
2022-08-08T19:59:40.390Z,18.6
2022-08-08T20:02:02.569Z,18.5
2022-08-08T20:04:01.059Z,18.5
2022-08-08T20:06:13.735Z,18.4
2022-08-08T20:08:28.247Z,18.2
2022-08-08T20:09:59.613Z,18.2
2022-08-08T20:12:08.508Z,18.1
2022-08-08T20:14:31.364Z,18.1
2022-08-08T20:16:14.419Z,18.1
2022-08-08T20:18:18.264Z,18.1
2022-08-08T20:20:22.461Z,18
2022-08-08T20:22:30.619Z,18
2022-08-08T20:24:29.802Z,18
2022-08-08T20:26:38.456Z,18
2022-08-08T20:32:10.207Z,17.9
2022-08-08T20:34:27.284Z,17.8
2022-08-08T20:35:57.112Z,17.8
2022-08-08T20:37:59.780Z,17.8
2022-08-08T20:42:10.787Z,17.7
2022-08-08T20:44:14.631Z,17.7
2022-08-08T20:46:20.752Z,17.7
2022-08-08T20:48:26.256Z,17.6
2022-08-08T20:50:26.204Z,17.6
2022-08-08T20:52:30.044Z,17.6
2022-08-08T20:54:37.190Z,17.5
2022-08-08T20:58:47.547Z,17.5
2022-08-08T21:00:48.784Z,17.5
2022-08-08T21:02:53.202Z,17.5
2022-08-08T21:04:56.547Z,17.5
2022-08-08T21:07:00.393Z,17.4
2022-08-08T21:17:22.990Z,17.2
2022-08-08T21:24:02.879Z,17.1
2022-08-08T21:28:09.523Z,17.1
2022-08-08T21:28:49.151Z,17
2022-08-08T21:30:53.031Z,17
2022-08-08T21:32:56.916Z,17
2022-08-08T21:36:16.577Z,16.9
2022-08-08T21:37:16.154Z,16.9
2022-08-08T21:39:11.810Z,16.9
2022-08-08T21:41:28.866Z,16.8
2022-08-08T21:43:19.503Z,16.8
2022-08-08T21:48:00.796Z,16.7
2022-08-08T21:48:05.191Z,16.7
2022-08-08T21:49:31.125Z,16.7
2022-08-08T21:54:23.064Z,16.7
2022-08-08T21:56:26.855Z,16.6
2022-08-08T21:58:04.187Z,16.6
2022-08-08T22:00:04.024Z,16.6
2022-08-08T22:02:03.744Z,16.5
2022-08-08T22:04:01.507Z,16.5
2022-08-08T22:06:08.630Z,16.4
2022-08-08T22:08:12.520Z,16.4
2022-08-08T22:10:18.634Z,16.4
2022-08-08T22:12:20.257Z,16.4
2022-08-08T22:14:26.944Z,16.4
2022-08-08T22:16:27.976Z,16.3
2022-08-08T22:18:31.862Z,16.2
2022-08-08T22:20:39.012Z,16.2
2022-08-08T22:22:42.851Z,16.2
2022-08-08T22:24:46.723Z,16.2
2022-08-08T22:34:12.339Z,16.1
2022-08-08T22:36:13.043Z,16.1
2022-08-08T22:38:17.380Z,16
2022-08-08T22:40:20.759Z,16
2022-08-08T22:42:31.391Z,16
2022-08-08T22:44:28.388Z,16
2022-08-08T22:46:32.282Z,15.9
2022-08-08T22:48:39.389Z,15.9
2022-08-08T22:50:43.266Z,15.9
2022-08-08T22:54:19.495Z,15.9
2022-08-08T22:54:53.938Z,15.8
2022-08-08T22:56:54.872Z,15.8
2022-08-08T23:05:14.664Z,15.7
2022-08-08T23:09:21.390Z,15.7
2022-08-08T23:11:58.185Z,15.6
2022-08-08T23:13:42.281Z,15.6
2022-08-08T23:16:39.187Z,15.5
2022-08-08T23:17:53.988Z,15.6
2022-08-08T23:26:17.564Z,15.5
2022-08-08T23:28:20.173Z,15.5
2022-08-08T23:30:27.326Z,15.4
2022-08-08T23:32:31.461Z,15.4
2022-08-08T23:34:35.061Z,15.4
2022-08-08T23:36:38.921Z,15.4
2022-08-08T23:38:44.651Z,15.3
2022-08-08T23:40:46.671Z,15.3
2022-08-08T23:42:51.405Z,15.3
2022-08-08T23:44:57.684Z,15.3
2022-08-08T23:49:04.027Z,15.3
2022-08-08T23:49:15.627Z,15.3
2022-08-08T23:51:12.777Z,15.3
2022-08-08T23:53:14.395Z,15.2
2022-08-08T23:55:22.852Z,15.2
2022-08-08T23:59:28.051Z,15.1
